Time;durP1;ratioP1;P1;durP2;ratioP2;P2;SDS_P1;SDS_P2;PMS_P1;PMS_P2;Temp;Humidity;BMP_temperature;BMP_pressure;BME280_temperature;BME280_humidity;BME280_pressure;Samples;Min_cycle;Max_cycle;Signal;HPM_P1;HPM_P2
2024/01/02 00:01:25;;;;;;;0.88;0.88;;;;;;;4.71;83.86;96767.09;5056238;28;20037;-74
2024/01/02 00:03:53;;;;;;;0.88;0.88;;;;;;;4.71;83.94;96763.63;5054884;28;20724;-73
2024/01/02 00:06:20;;;;;;;0.85;0.85;;;;;;;4.68;84.09;96756.88;5048871;28;20116;-73
2024/01/02 00:08:48;;;;;;;1.02;1.02;;;;;;;4.68;84.01;96767.44;5051992;28;20041;-73
2024/01/02 00:11:16;;;;;;;0.75;0.75;;;;;;;4.74;83.99;96761.47;5052940;28;20033;-73
2024/01/02 00:13:44;;;;;;;0.80;0.80;;;;;;;4.77;83.50;96769.03;5057477;28;20102;-73
2024/01/02 00:16:12;;;;;;;0.85;0.85;;;;;;;4.76;84.14;96756.81;5064362;28;20068;-72
2024/01/02 00:18:40;;;;;;;1.27;1.27;;;;;;;4.73;84.08;96740.50;5047689;28;20052;-72
2024/01/02 00:21:07;;;;;;;1.25;1.25;;;;;;;4.77;83.92;96734.69;5040050;28;20128;-72
2024/01/02 00:23:35;;;;;;;1.00;1.00;;;;;;;4.74;84.12;96729.75;5050028;28;20048;-71
2024/01/02 00:26:03;;;;;;;1.10;1.10;;;;;;;4.71;84.13;96726.63;5065000;28;20044;-71
2024/01/02 00:28:31;;;;;;;0.20;0.20;;;;;;;4.70;83.69;96727.63;5046049;28;20442;-71
2024/01/02 00:30:59;;;;;;;1.00;1.00;;;;;;;4.72;83.94;96726.44;5043019;28;20064;-71
2024/01/02 00:33:27;;;;;;;0.77;0.77;;;;;;;4.74;83.53;96719.16;5041268;28;20048;-71
2024/01/02 00:35:55;;;;;;;0.90;0.90;;;;;;;4.78;83.26;96717.78;5045278;28;20051;-71
2024/01/02 00:38:27;;;;;;;0.82;0.82;;;;;;;4.76;83.51;96725.09;5045923;28;20044;-70
2024/01/02 00:40:54;;;;;;;0.90;0.90;;;;;;;4.72;83.27;96723.00;5040904;28;20472;-75
2024/01/02 00:43:22;;;;;;;1.52;1.52;;;;;;;4.74;83.18;96724.47;5051753;28;20037;-70
2024/01/02 00:45:50;;;;;;;1.35;1.35;;;;;;;4.71;83.16;96724.81;5054858;28;20063;-70
2024/01/02 00:48:18;;;;;;;0.73;0.73;;;;;;;4.71;82.55;96716.88;5039016;28;20040;-71
2024/01/02 00:50:46;;;;;;;0.30;0.30;;;;;;;4.77;81.73;96707.44;5068721;28;20372;-71
2024/01/02 00:53:14;;;;;;;0.90;0.90;;;;;;;4.76;82.06;96711.88;5051355;28;20044;-72
2024/01/02 00:55:41;;;;;;;0.68;0.68;;;;;;;4.73;81.69;96706.97;5066832;28;20044;-70
2024/01/02 00:58:09;;;;;;;0.75;0.75;;;;;;;4.77;81.14;96702.97;5044737;28;20504;-71
2024/01/02 01:00:37;;;;;;;0.88;0.88;;;;;;;4.70;81.56;96703.84;5034432;28;20512;-71
2024/01/02 01:03:05;;;;;;;1.05;1.05;;;;;;;4.83;81.61;96703.22;5055591;28;20044;-73
2024/01/02 01:05:34;;;;;;;0.60;0.60;;;;;;;4.75;81.63;96691.75;5040097;28;20036;-72
2024/01/02 01:08:02;;;;;;;1.20;1.20;;;;;;;4.77;81.92;96689.75;5053645;28;20045;-70
2024/01/02 01:10:30;;;;;;;1.00;1.00;;;;;;;4.73;82.20;96683.16;5040940;28;20494;-71
2024/01/02 01:12:57;;;;;;;0.90;0.90;;;;;;;4.70;82.00;96690.63;5042549;28;20131;-72
2024/01/02 01:15:25;;;;;;;1.30;1.30;;;;;;;4.71;82.30;96685.16;5041779;28;20049;-71
2024/01/02 01:17:52;;;;;;;0.93;0.93;;;;;;;4.67;82.31;96673.31;5052359;28;20075;-73
2024/01/02 01:20:21;;;;;;;0.63;0.63;;;;;;;4.64;82.24;96678.16;5051280;28;20117;-72
2024/01/02 01:22:50;;;;;;;0.80;0.80;;;;;;;4.64;82.44;96678.16;5043589;28;20121;-73
2024/01/02 01:25:18;;;;;;;0.77;0.77;;;;;;;4.58;82.22;96682.31;5047823;28;20048;-71
2024/01/02 01:27:45;;;;;;;0.90;0.90;;;;;;;4.52;82.33;96674.28;5037724;28;20068;-71
2024/01/02 01:30:13;;;;;;;1.00;1.00;;;;;;;4.47;82.44;96672.19;5036814;28;20052;-73
2024/01/02 01:32:41;;;;;;;1.00;1.00;;;;;;;4.45;82.21;96679.50;5037276;28;20689;-70
2024/01/02 01:35:09;;;;;;;1.02;1.02;;;;;;;4.45;82.50;96676.03;5066425;28;20601;-71
2024/01/02 01:37:37;;;;;;;0.90;0.90;;;;;;;4.48;82.38;96667.72;5050854;28;20138;-74
2024/01/02 01:40:08;;;;;;;1.10;1.10;;;;;;;4.41;82.55;96673.72;5058422;28;20036;-71
2024/01/02 01:42:36;;;;;;;1.00;1.00;;;;;;;4.43;82.16;96670.91;5036979;28;20132;-72
2024/01/02 01:45:04;;;;;;;0.95;0.95;;;;;;;4.40;82.67;96677.38;5041150;28;20127;-73
2024/01/02 01:47:32;;;;;;;0.85;0.85;;;;;;;4.35;82.59;96676.28;5039654;28;20071;-73
2024/01/02 01:50:00;;;;;;;0.82;0.82;;;;;;;4.38;82.44;96668.78;5039072;28;20095;-73
2024/01/02 01:52:32;;;;;;;0.75;0.75;;;;;;;4.36;82.44;96665.50;5051166;28;20102;-73
2024/01/02 01:54:59;;;;;;;0.50;0.50;;;;;;;4.31;82.65;96665.22;5061229;28;20048;-71
2024/01/02 01:57:29;;;;;;;1.02;1.02;;;;;;;4.31;82.45;96659.94;5049496;28;20040;-72
2024/01/02 01:59:56;;;;;;;0.73;0.73;;;;;;;4.34;82.64;96653.50;5040831;28;20507;-71
2024/01/02 02:02:24;;;;;;;0.93;0.93;;;;;;;4.28;82.60;96639.19;5033412;28;20204;-71
2024/01/02 02:04:54;;;;;;;0.60;0.60;;;;;;;4.27;82.49;96636.72;5034932;28;20499;-71
2024/01/02 02:07:21;;;;;;;0.85;0.85;;;;;;;4.26;83.01;96640.34;5051775;28;20037;-71
2024/01/02 02:09:51;;;;;;;0.30;0.30;;;;;;;4.27;82.96;96648.09;5073980;28;20469;-71
2024/01/02 02:12:18;;;;;;;0.77;0.77;;;;;;;4.26;83.22;96641.16;5038533;28;20111;-72
2024/01/02 02:14:47;;;;;;;0.75;0.75;;;;;;;4.25;82.74;96647.47;5036923;28;20041;-73
2024/01/02 02:17:34;;;;;;;1.02;1.02;;;;;;;4.29;82.90;96640.00;5054558;28;20037;-73
2024/01/02 02:20:02;;;;;;;0.70;0.70;;;;;;;4.26;82.79;96632.41;5075881;28;20495;-74
2024/01/02 02:22:40;;;;;;;1.10;1.10;;;;;;;4.25;83.07;96628.16;5040117;28;20033;-71
2024/01/02 02:25:09;;;;;;;0.98;0.98;;;;;;;4.27;82.84;96623.50;5055242;28;20098;-71
2024/01/02 02:27:37;;;;;;;0.82;0.82;;;;;;;4.23;82.88;96624.88;5031541;28;20155;-70
2024/01/02 02:30:05;;;;;;;0.95;0.95;;;;;;;4.25;82.97;96623.72;5048372;28;20053;-71
2024/01/02 02:32:33;;;;;;;1.08;1.08;;;;;;;4.18;83.11;96606.91;5049017;28;20029;-71
2024/01/02 02:35:01;;;;;;;0.77;0.77;;;;;;;4.17;83.49;96605.28;5039154;28;20060;-72
2024/01/02 02:37:29;;;;;;;1.92;1.92;;;;;;;4.19;83.49;96607.75;5041736;28;20040;-72
2024/01/02 02:39:56;;;;;;;1.08;1.08;;;;;;;4.23;83.41;96604.56;5040021;28;20059;-71
2024/01/02 02:42:25;;;;;;;1.42;1.42;;;;;;;4.20;83.22;96601.47;5038005;28;20075;-74
2024/01/02 02:44:53;;;;;;;0.77;0.77;;;;;;;4.22;83.33;96602.13;5063893;28;20115;-71
2024/01/02 02:47:22;;;;;;;0.85;0.85;;;;;;;4.19;83.32;96597.19;5050120;28;20037;-71
2024/01/02 02:49:51;;;;;;;1.00;1.00;;;;;;;4.19;83.53;96592.72;5028948;28;20049;-71
2024/01/02 02:52:20;;;;;;;0.73;0.73;;;;;;;4.22;83.53;96583.63;5053731;28;20056;-71
2024/01/02 02:54:48;;;;;;;0.95;0.95;;;;;;;4.25;83.73;96584.09;5067075;28;20125;-70
2024/01/02 02:57:15;;;;;;;1.10;1.10;;;;;;;4.22;83.51;96579.16;5036400;28;20042;-73
2024/01/02 02:59:44;;;;;;;1.00;1.00;;;;;;;4.25;83.44;96576.19;5050968;28;20045;-74
2024/01/02 03:02:12;;;;;;;0.90;0.90;;;;;;;4.23;83.63;96566.78;5035399;28;20041;-71
2024/01/02 03:04:39;;;;;;;1.38;1.38;;;;;;;4.22;83.46;96558.03;5034263;28;20555;-70
2024/01/02 03:07:07;;;;;;;1.08;1.08;;;;;;;4.22;83.49;96538.72;5058018;28;20097;-73
2024/01/02 03:09:35;;;;;;;0.95;0.95;;;;;;;4.19;83.54;96545.19;5052173;28;20036;-70
2024/01/02 03:12:03;;;;;;;1.20;1.20;;;;;;;4.24;83.63;96531.47;5065634;28;20041;-71
2024/01/02 03:14:30;;;;;;;0.80;0.80;;;;;;;4.21;83.08;96522.06;5060823;28;20499;-70
2024/01/02 03:16:59;;;;;;;0.60;0.60;;;;;;;4.21;83.59;96522.06;5059838;28;20063;-71
2024/01/02 03:19:27;;;;;;;0.95;0.95;;;;;;;4.22;83.77;96517.63;5059163;28;20130;-71
2024/01/02 03:21:55;;;;;;;0.90;0.90;;;;;;;4.21;83.86;96503.59;5061244;28;20037;-71
2024/01/02 03:24:22;;;;;;;1.00;1.00;;;;;;;4.26;84.14;96503.03;5063097;28;20040;-71
2024/01/02 03:26:50;;;;;;;0.85;0.85;;;;;;;4.27;83.94;96492.28;5063100;28;20494;-72
2024/01/02 03:29:17;;;;;;;1.05;1.05;;;;;;;4.30;83.84;96504.31;5054345;28;20053;-70
2024/01/02 03:31:45;;;;;;;0.95;0.95;;;;;;;4.30;83.83;96496.38;5061897;28;20045;-72
2024/01/02 03:34:14;;;;;;;0.85;0.85;;;;;;;4.31;83.80;96487.47;5048905;28;20041;-70
2024/01/02 03:36:42;;;;;;;0.93;0.93;;;;;;;4.31;83.98;96484.81;5033695;28;20087;-71
2024/01/02 03:39:10;;;;;;;1.38;1.38;;;;;;;4.33;83.97;96480.19;5042865;28;20040;-71
2024/01/02 03:41:37;;;;;;;1.27;1.27;;;;;;;4.32;84.07;96467.97;5048869;28;20071;-71
2024/01/02 03:44:05;;;;;;;0.35;0.35;;;;;;;4.31;84.24;96459.22;5056749;28;20392;-71
2024/01/02 03:46:32;;;;;;;0.70;0.70;;;;;;;4.32;84.52;96444.22;5057952;28;20041;-72
2024/01/02 03:49:00;;;;;;;0.45;0.45;;;;;;;4.30;84.49;96444.38;5027546;28;20403;-74
2024/01/02 03:51:29;;;;;;;0.60;0.60;;;;;;;4.31;84.36;96438.09;5052404;28;20725;-71
2024/01/02 03:53:57;;;;;;;0.85;0.85;;;;;;;4.31;84.51;96438.09;5051681;28;20883;-72
2024/01/02 03:56:24;;;;;;;0.98;0.98;;;;;;;4.32;84.40;96431.00;5053962;28;20464;-74
2024/01/02 03:58:52;;;;;;;0.85;0.85;;;;;;;4.32;84.40;96412.53;5047765;28;20045;-71
2024/01/02 04:01:20;;;;;;;1.30;1.30;;;;;;;4.33;84.49;96416.81;5040228;28;20052;-71
2024/01/02 04:03:47;;;;;;;1.33;1.33;;;;;;;4.35;84.31;96415.63;5052850;28;20555;-72
2024/01/02 04:06:15;;;;;;;0.85;0.85;;;;;;;4.37;84.18;96415.41;5038731;28;20049;-73
2024/01/02 04:08:44;;;;;;;1.25;1.25;;;;;;;4.37;83.74;96399.56;5054407;28;20080;-74
2024/01/02 04:11:13;;;;;;;1.10;1.10;;;;;;;4.38;83.85;96393.28;5049960;28;20053;-72
2024/01/02 04:13:41;;;;;;;1.08;1.08;;;;;;;4.35;83.94;96391.84;5056666;28;20044;-74
2024/01/02 04:16:08;;;;;;;1.15;1.15;;;;;;;4.37;84.15;96394.28;5051516;28;20037;-72
2024/01/02 04:18:36;;;;;;;0.80;0.80;;;;;;;4.35;83.99;96381.28;5052997;28;20087;-72
2024/01/02 04:21:04;;;;;;;0.88;0.88;;;;;;;4.35;83.87;96377.81;5047568;28;20199;-72
2024/01/02 04:23:32;;;;;;;1.20;1.20;;;;;;;4.29;83.98;96374.09;5059189;28;20119;-72
2024/01/02 04:26:01;;;;;;;1.05;1.05;;;;;;;4.29;84.18;96375.91;5037547;28;20056;-73
2024/01/02 04:28:28;;;;;;;0.35;0.35;;;;;;;4.27;84.30;96372.63;5053836;28;20376;-72
2024/01/02 04:30:56;;;;;;;0.82;0.82;;;;;;;4.23;84.13;96358.19;5041960;28;20040;-73
2024/01/02 04:33:23;;;;;;;1.23;1.23;;;;;;;4.20;84.54;96356.72;5050353;28;20037;-73
2024/01/02 04:35:51;;;;;;;0.98;0.98;;;;;;;4.19;84.40;96355.09;5059392;28;20480;-74
2024/01/02 04:38:18;;;;;;;1.70;1.70;;;;;;;4.19;84.79;96359.53;5057853;28;20046;-72
2024/01/02 04:40:46;;;;;;;0.82;0.82;;;;;;;4.18;84.80;96355.25;5059341;28;20045;-73
2024/01/02 04:43:15;;;;;;;0.93;0.93;;;;;;;4.13;84.91;96347.09;5050709;28;20041;-73
2024/01/02 04:45:43;;;;;;;0.80;0.80;;;;;;;4.12;85.09;96351.56;5048897;28;20041;-74
2024/01/02 04:48:10;;;;;;;0.70;0.70;;;;;;;4.14;84.98;96348.72;5052066;28;20480;-72
2024/01/02 04:50:38;;;;;;;0.73;0.73;;;;;;;4.13;84.99;96349.72;5046622;28;20047;-73
2024/01/02 04:53:06;;;;;;;1.00;1.00;;;;;;;4.15;85.11;96342.44;5056579;28;20045;-73
2024/01/02 04:58:30;;;;;;;1.10;1.10;;;;;;;4.17;84.34;96329.84;4978572;23;20104;-74
2024/01/02 05:00:58;;;;;;;0.82;0.82;;;;;;;4.18;84.57;96326.22;4989177;28;20054;-72
2024/01/02 05:03:26;;;;;;;0.88;0.88;;;;;;;4.17;84.61;96306.91;4990257;28;20502;-74
2024/01/02 05:05:53;;;;;;;1.05;1.05;;;;;;;4.18;84.56;96318.28;4996405;28;20041;-73
2024/01/02 05:08:21;;;;;;;0.95;0.95;;;;;;;4.17;84.39;96298.19;4989644;28;20499;-73
2024/01/02 05:10:49;;;;;;;0.68;0.68;;;;;;;4.16;84.51;96291.25;4988723;28;20046;-73
2024/01/02 05:13:16;;;;;;;0.60;0.60;;;;;;;4.16;84.64;96292.06;4989678;28;20046;-73
2024/01/02 05:15:45;;;;;;;1.15;1.15;;;;;;;4.14;84.81;96277.44;4997675;28;20077;-73
2024/01/02 05:18:13;;;;;;;0.80;0.80;;;;;;;4.14;85.12;96285.38;4989689;28;20050;-72
2024/01/02 05:20:42;;;;;;;1.33;1.33;;;;;;;4.11;85.11;96269.91;4985768;28;20043;-73
2024/01/02 05:23:10;;;;;;;0.80;0.80;;;;;;;4.07;85.42;96257.06;4990373;28;20133;-73
2024/01/02 05:25:44;;;;;;;0.70;0.70;;;;;;;4.03;85.85;96255.81;4991731;28;20043;-72
2024/01/02 05:28:12;;;;;;;0.90;0.90;;;;;;;3.99;86.41;96249.25;4986916;28;20054;-71
2024/01/02 05:30:40;;;;;;;0.38;0.38;;;;;;;4.00;86.59;96245.63;4990545;28;20444;-71
2024/01/02 05:33:09;;;;;;;0.30;0.30;;;;;;;3.96;86.66;96252.28;4988707;28;20478;-74
2024/01/02 05:35:40;;;;;;;0.80;0.80;;;;;;;3.93;87.30;96239.47;4981150;28;20081;-72
2024/01/02 05:38:08;;;;;;;0.82;0.82;;;;;;;3.89;87.20;96247.94;4991123;28;20071;-72
2024/01/02 05:40:36;;;;;;;1.00;1.00;;;;;;;3.89;87.62;96248.75;4987867;28;20050;-72
2024/01/02 05:43:04;;;;;;;0.85;0.85;;;;;;;3.84;87.61;96240.56;4982349;28;20052;-72
2024/01/02 05:45:31;;;;;;;0.77;0.77;;;;;;;3.84;88.01;96243.19;4987793;28;20129;-72
2024/01/02 05:47:59;;;;;;;1.48;1.48;;;;;;;3.82;88.35;96226.75;4977325;28;20055;-72
2024/01/02 05:50:29;;;;;;;1.10;1.10;;;;;;;3.80;88.34;96212.94;4984828;28;20046;-72
2024/01/02 05:52:57;;;;;;;0.75;0.75;;;;;;;3.79;89.43;96218.38;4986692;28;20046;-72
2024/01/02 05:55:25;;;;;;;0.38;0.38;;;;;;;3.79;88.94;96205.19;4988617;28;20531;-72
2024/01/02 05:57:53;;;;;;;1.05;1.05;;;;;;;3.79;89.25;96192.81;4985303;28;20046;-72
2024/01/02 06:00:21;;;;;;;1.25;1.25;;;;;;;3.73;89.66;96172.47;4985336;28;20046;-72
2024/01/02 06:02:48;;;;;;;1.02;1.02;;;;;;;3.72;90.59;96177.94;4986292;28;20121;-72
2024/01/02 06:05:16;;;;;;;0.60;0.60;;;;;;;3.68;90.38;96180.94;4985951;28;20113;-72
2024/01/02 06:07:46;;;;;;;0.75;0.75;;;;;;;3.67;90.53;96178.47;4985853;28;20054;-72
2024/01/02 06:10:13;;;;;;;0.82;0.82;;;;;;;3.67;90.99;96181.94;4986634;28;20046;-72
2024/01/02 06:12:41;;;;;;;0.95;0.95;;;;;;;3.66;90.81;96175.03;4985466;28;20041;-72
2024/01/02 06:15:09;;;;;;;1.13;1.13;;;;;;;3.64;91.24;96166.47;4984328;28;20041;-72
2024/01/02 06:17:37;;;;;;;1.05;1.05;;;;;;;3.63;91.55;96156.91;4987882;28;21193;-72
2024/01/02 06:20:06;;;;;;;0.30;0.30;;;;;;;3.61;91.46;96158.97;4983644;28;20441;-72
2024/01/02 06:22:34;;;;;;;0.90;0.90;;;;;;;3.61;91.68;96163.41;4989717;28;20047;-71
2024/01/02 06:25:04;;;;;;;0.75;0.75;;;;;;;3.58;91.88;96161.97;4999725;28;20042;-72
2024/01/02 06:27:31;;;;;;;0.68;0.68;;;;;;;3.57;91.75;96170.88;4990287;28;20042;-71
2024/01/02 06:29:59;;;;;;;0.70;0.70;;;;;;;3.59;91.51;96168.88;4978526;28;20046;-72
2024/01/02 06:32:26;;;;;;;1.00;1.00;;;;;;;3.57;91.18;96160.31;4982163;28;20046;-71
2024/01/02 06:34:54;;;;;;;0.17;0.17;;;;;;;3.56;90.93;96165.78;4982426;28;20434;-71
2024/01/02 06:37:23;;;;;;;1.08;1.08;;;;;;;3.58;91.17;96159.31;4980169;28;20053;-72
2024/01/02 06:39:51;;;;;;;1.63;1.63;;;;;;;3.58;91.08;96156.69;4990067;28;20046;-71
2024/01/02 06:42:20;;;;;;;1.13;1.13;;;;;;;3.56;91.15;96148.13;4982246;28;20066;-71
2024/01/02 06:44:47;;;;;;;0.77;0.77;;;;;;;3.53;90.95;96139.78;4988728;28;20049;-70
2024/01/02 06:47:15;;;;;;;1.08;1.08;;;;;;;3.51;90.63;96131.25;4984265;28;20042;-72
2024/01/02 06:49:43;;;;;;;0.80;0.80;;;;;;;3.50;90.81;96132.25;4982582;28;20046;-72
2024/01/02 06:52:10;;;;;;;1.35;1.35;;;;;;;3.48;90.70;96121.06;4979638;28;20134;-71
2024/01/02 06:54:38;;;;;;;0.77;0.77;;;;;;;3.44;90.60;96122.44;4983331;28;20050;-71
2024/01/02 06:57:06;;;;;;;1.05;1.05;;;;;;;3.41;91.20;96118.38;4986055;28;20042;-71
2024/01/02 06:59:35;;;;;;;0.88;0.88;;;;;;;3.35;91.16;96119.09;4976060;28;20482;-72
2024/01/02 07:02:03;;;;;;;0.77;0.77;;;;;;;3.31;91.12;96096.75;4981701;28;20466;-72
2024/01/02 07:04:32;;;;;;;0.85;0.85;;;;;;;3.22;91.01;96105.75;4974306;28;20050;-73
2024/01/02 07:06:59;;;;;;;0.20;0.20;;;;;;;3.17;90.95;96097.59;4982440;28;20398;-72
2024/01/02 07:09:27;;;;;;;0.80;0.80;;;;;;;3.20;91.04;96099.88;4978618;28;20053;-73
2024/01/02 07:11:55;;;;;;;1.08;1.08;;;;;;;3.14;90.99;96101.41;4984778;28;20034;-72
2024/01/02 07:14:23;;;;;;;0.95;0.95;;;;;;;3.07;91.01;96089.19;4978920;28;20050;-73
2024/01/02 07:16:52;;;;;;;0.60;0.60;;;;;;;3.03;91.19;96080.81;4982481;28;20089;-73
2024/01/02 07:19:19;;;;;;;1.05;1.05;;;;;;;3.03;90.58;96086.09;4982665;28;20047;-72
2024/01/02 07:21:48;;;;;;;1.08;1.08;;;;;;;2.99;90.14;96079.56;4969183;28;20469;-71
2024/01/02 07:24:15;;;;;;;0.28;0.28;;;;;;;2.93;90.59;96080.28;4986608;28;20410;-71
2024/01/02 07:26:43;;;;;;;0.95;0.95;;;;;;;2.92;90.66;96079.47;4980310;28;20053;-72
2024/01/02 07:29:11;;;;;;;1.23;1.23;;;;;;;2.89;91.41;96071.97;4991504;28;20057;-72
2024/01/02 07:31:38;;;;;;;0.80;0.80;;;;;;;2.85;91.18;96067.22;4983838;28;20113;-72
2024/01/02 07:34:07;;;;;;;0.90;0.90;;;;;;;2.78;91.19;96063.72;4993674;28;20049;-71
2024/01/02 07:36:35;;;;;;;0.65;0.65;;;;;;;2.80;91.72;96072.25;4989325;28;20130;-73
2024/01/02 07:39:04;;;;;;;0.30;0.30;;;;;;;2.77;91.21;96060.25;4993082;28;20410;-72
2024/01/02 07:41:31;;;;;;;0.82;0.82;;;;;;;2.75;91.49;96054.34;4991991;28;20093;-71
2024/01/02 07:44:00;;;;;;;0.70;0.70;;;;;;;2.72;91.42;96052.06;4992633;28;20056;-71
2024/01/02 07:46:28;;;;;;;1.02;1.02;;;;;;;2.70;91.64;96053.28;4994643;28;20110;-72
2024/01/02 07:48:56;;;;;;;0.95;0.95;;;;;;;2.65;91.51;96040.66;4990430;28;20042;-70
2024/01/02 07:51:25;;;;;;;0.93;0.93;;;;;;;2.64;92.16;96039.03;4990928;28;20513;-70
2024/01/02 07:53:53;;;;;;;0.85;0.85;;;;;;;2.62;91.70;96043.66;4988997;28;20042;-72
2024/01/02 07:56:21;;;;;;;1.13;1.13;;;;;;;2.56;91.60;96039.94;4993351;28;20050;-70
2024/01/02 07:58:50;;;;;;;0.60;0.60;;;;;;;2.58;92.09;96032.69;4986056;28;20046;-71
2024/01/02 08:01:18;;;;;;;0.85;0.85;;;;;;;2.57;91.72;96032.88;4984965;28;20046;-73
2024/01/02 08:03:46;;;;;;;0.70;0.70;;;;;;;2.62;91.67;96027.03;4985712;28;20057;-72
2024/01/02 08:06:14;;;;;;;0.85;0.85;;;;;;;2.61;91.54;96018.31;4978626;28;20524;-72
2024/01/02 08:08:44;;;;;;;1.13;1.13;;;;;;;2.63;91.67;96004.97;4987182;28;20049;-73
2024/01/02 08:11:12;;;;;;;0.65;0.65;;;;;;;2.59;91.42;96009.81;4979431;28;20039;-70
2024/01/02 08:13:40;;;;;;;1.02;1.02;;;;;;;2.60;91.78;96002.72;4991869;28;20050;-70
2024/01/02 08:16:07;;;;;;;0.80;0.80;;;;;;;2.62;91.24;95992.78;4978164;28;20034;-71
2024/01/02 08:18:41;;;;;;;0.73;0.73;;;;;;;2.61;91.34;95993.78;4991292;28;20046;-71
2024/01/02 08:21:09;;;;;;;0.65;0.65;;;;;;;2.61;91.28;95999.06;4999067;28;20246;-71
2024/01/02 08:23:38;;;;;;;0.88;0.88;;;;;;;2.64;91.12;95988.97;4992896;28;20104;-71
2024/01/02 08:26:12;;;;;;;0.90;0.90;;;;;;;2.64;90.88;95985.53;5001437;28;20069;-72
2024/01/02 08:28:40;;;;;;;0.90;0.90;;;;;;;2.62;91.52;95979.63;4993343;28;20047;-73
2024/01/02 08:31:08;;;;;;;0.88;0.88;;;;;;;2.60;91.27;95968.50;4993510;28;20049;-73
2024/01/02 08:33:36;;;;;;;0.85;0.85;;;;;;;2.57;91.53;95959.13;4995427;28;20502;-72
2024/01/02 08:36:06;;;;;;;0.73;0.73;;;;;;;2.59;92.24;95954.50;4997784;28;20035;-73
2024/01/02 08:38:34;;;;;;;1.35;1.35;;;;;;;2.56;92.03;95947.78;4992273;28;20042;-73
2024/01/02 08:41:01;;;;;;;0.98;0.98;;;;;;;2.55;91.72;95943.53;4994091;28;20069;-70
2024/01/02 08:43:31;;;;;;;0.20;0.20;;;;;;;2.58;91.68;95937.88;4995785;28;20406;-72
2024/01/02 08:45:58;;;;;;;0.95;0.95;;;;;;;2.62;92.30;95948.84;4994871;28;20050;-73
2024/01/02 08:48:26;;;;;;;0.90;0.90;;;;;;;2.60;91.37;95935.03;4992884;28;20137;-72
2024/01/02 08:50:54;;;;;;;0.95;0.95;;;;;;;2.63;91.74;95923.31;4992529;28;20046;-73
2024/01/02 08:53:22;;;;;;;1.33;1.33;;;;;;;2.62;90.90;95904.09;4989508;28;20508;-72
2024/01/02 08:55:49;;;;;;;1.15;1.15;;;;;;;2.65;91.25;95916.88;4990183;28;20042;-71
2024/01/02 08:58:19;;;;;;;1.20;1.20;;;;;;;2.65;91.34;95902.91;4989541;28;20058;-71
2024/01/02 09:00:47;;;;;;;0.88;0.88;;;;;;;2.70;90.79;95911.06;4992488;28;20041;-71
2024/01/02 09:03:15;;;;;;;1.42;1.42;;;;;;;2.74;90.61;95894.69;4992523;28;20079;-71
2024/01/02 09:05:43;;;;;;;0.30;0.30;;;;;;;2.79;90.67;95902.03;4983972;28;20394;-71
2024/01/02 09:08:11;;;;;;;0.25;0.25;;;;;;;2.76;90.24;95897.13;4992244;28;20413;-71
2024/01/02 09:10:39;;;;;;;0.88;0.88;;;;;;;2.83;90.63;95898.81;4992261;28;20046;-71
2024/01/02 09:13:07;;;;;;;0.85;0.85;;;;;;;2.85;90.04;95894.19;4992234;28;20053;-71
2024/01/02 09:15:36;;;;;;;0.20;0.20;;;;;;;2.88;90.17;95903.53;4992598;28;20425;-73
2024/01/02 09:18:05;;;;;;;1.38;1.38;;;;;;;2.92;89.43;95888.97;4992556;28;20058;-71
2024/01/02 09:20:34;;;;;;;0.98;0.98;;;;;;;2.93;89.76;95896.69;4990577;28;20046;-71
2024/01/02 09:23:02;;;;;;;0.88;0.88;;;;;;;2.96;89.99;95887.59;4994347;28;20065;-71
2024/01/02 09:25:32;;;;;;;0.93;0.93;;;;;;;2.99;89.77;95900.41;5003480;28;20092;-71
2024/01/02 09:28:01;;;;;;;0.98;0.98;;;;;;;3.01;89.40;95890.47;4995603;28;20528;-71
2024/01/02 09:30:29;;;;;;;0.82;0.82;;;;;;;3.03;89.82;95887.63;5000164;28;20089;-71
2024/01/02 09:32:58;;;;;;;1.33;1.33;;;;;;;3.06;89.93;95885.44;4989166;28;20046;-71
2024/01/02 09:35:27;;;;;;;1.00;1.00;;;;;;;3.10;89.91;95878.81;4999123;28;20034;-71
2024/01/02 09:37:55;;;;;;;1.05;1.05;;;;;;;3.10;89.57;95878.00;4996990;28;20562;-71
2024/01/02 09:40:34;;;;;;;0.90;0.90;;;;;;;3.10;89.30;95875.34;5009081;28;20060;-71
2024/01/02 09:43:08;;;;;;;0.80;0.80;;;;;;;3.16;89.54;95874.56;5001394;28;20065;-71
2024/01/02 09:45:46;;;;;;;1.15;1.15;;;;;;;3.15;89.53;95868.50;5007307;28;20049;-71
2024/01/02 09:48:25;;;;;;;0.65;0.65;;;;;;;3.14;89.26;95863.41;4985480;28;20050;-71
2024/01/02 09:51:04;;;;;;;0.85;0.85;;;;;;;3.16;89.70;95866.66;4992102;28;20049;-71
2024/01/02 09:53:53;;;;;;;1.10;1.10;;;;;;;3.19;89.60;95850.47;5003461;28;20050;-71
2024/01/02 09:56:28;;;;;;;1.20;1.20;;;;;;;3.25;89.08;95850.50;5010527;28;20125;-71
2024/01/02 09:59:09;;;;;;;1.05;1.05;;;;;;;3.27;88.98;95856.41;4991635;28;20528;-71
2024/01/02 10:01:45;;;;;;;0.80;0.80;;;;;;;3.30;89.00;95861.31;4997876;28;20043;-71
2024/01/02 10:04:43;;;;;;;0.85;0.85;;;;;;;3.36;88.99;95862.34;5004659;28;20050;-71
2024/01/02 10:07:27;;;;;;;0.73;0.73;;;;;;;3.40;89.16;95842.50;4998747;28;20144;-71
2024/01/02 10:10:07;;;;;;;0.93;0.93;;;;;;;3.42;89.51;95845.78;5004732;28;20057;-72
2024/01/02 10:12:49;;;;;;;1.05;1.05;;;;;;;3.45;88.78;95841.91;5008424;28;20038;-71
2024/01/02 10:15:21;;;;;;;1.33;1.33;;;;;;;3.45;88.99;95840.09;5003034;28;20043;-71
2024/01/02 10:17:54;;;;;;;0.82;0.82;;;;;;;3.46;88.67;95849.63;5009845;28;20052;-71
2024/01/02 10:20:27;;;;;;;0.60;0.60;;;;;;;3.47;88.82;95839.91;4992882;28;20054;-71
2024/01/02 10:23:06;;;;;;;0.80;0.80;;;;;;;3.47;89.02;95845.19;5001537;28;20184;-71
2024/01/02 10:25:34;;;;;;;0.93;0.93;;;;;;;3.51;89.26;95838.53;5005109;28;20052;-71
2024/01/02 10:28:09;;;;;;;0.70;0.70;;;;;;;3.55;89.22;95829.19;5008526;28;20045;-71
2024/01/02 10:30:44;;;;;;;1.13;1.13;;;;;;;3.56;89.11;95817.63;5005479;28;20046;-73
2024/01/02 10:33:19;;;;;;;0.85;0.85;;;;;;;3.58;89.16;95811.16;5005015;28;20049;-71
2024/01/02 10:35:51;;;;;;;0.80;0.80;;;;;;;3.62;89.06;95791.31;5005381;28;20038;-71
2024/01/02 10:38:28;;;;;;;0.88;0.88;;;;;;;3.63;88.98;95792.13;4981279;28;20042;-73
2024/01/02 10:41:06;;;;;;;0.85;0.85;;;;;;;3.66;89.19;95802.28;4993662;28;20045;-72
2024/01/02 10:43:43;;;;;;;0.98;0.98;;;;;;;3.69;89.58;95809.81;5008547;28;20050;-71
2024/01/02 10:46:16;;;;;;;1.40;1.40;;;;;;;3.77;89.51;95808.81;5004398;28;20048;-71
2024/01/02 10:48:49;;;;;;;0.90;0.90;;;;;;;3.81;89.57;95807.41;5003002;28;20074;-73
2024/01/02 10:51:23;;;;;;;1.45;1.45;;;;;;;3.83;89.67;95792.22;5006122;28;20046;-72
2024/01/02 10:53:59;;;;;;;0.70;0.70;;;;;;;3.84;89.21;95794.63;5004428;28;20111;-71
2024/01/02 10:56:36;;;;;;;0.95;0.95;;;;;;;3.86;89.44;95797.88;5009616;28;20041;-72
2024/01/02 10:59:12;;;;;;;0.82;0.82;;;;;;;3.87;89.54;95796.06;5003259;28;20057;-72
2024/01/02 11:01:41;;;;;;;0.40;0.40;;;;;;;3.88;89.66;95787.97;4996357;28;20441;-73
2024/01/02 11:04:12;;;;;;;0.70;0.70;;;;;;;3.85;89.54;95787.53;5010216;28;20532;-72
2024/01/02 11:06:44;;;;;;;0.82;0.82;;;;;;;3.92;89.85;95780.47;5005549;28;20064;-73
2024/01/02 11:09:18;;;;;;;0.88;0.88;;;;;;;3.99;90.17;95782.09;5012286;28;20073;-71
2024/01/02 11:11:50;;;;;;;0.75;0.75;;;;;;;4.01;90.04;95774.81;5010949;23;20149;-75
2024/01/02 11:14:39;;;;;;;0.65;0.65;;;;;;;4.06;90.54;95767.09;4981201;28;20565;-74
2024/01/02 11:17:08;;;;;;;1.52;1.52;;;;;;;4.13;90.39;95766.31;4982894;28;20043;-74
2024/01/02 11:19:41;;;;;;;0.77;0.77;;;;;;;4.15;90.80;95754.56;4973589;28;20094;-74
2024/01/02 11:22:12;;;;;;;1.42;1.42;;;;;;;4.25;91.34;95751.53;4974329;28;20125;-75
2024/01/02 11:24:45;;;;;;;0.80;0.80;;;;;;;4.30;91.65;95754.34;4980910;28;20042;-74
2024/01/02 11:27:14;;;;;;;0.82;0.82;;;;;;;4.33;92.48;95756.59;4979616;28;20054;-74
2024/01/02 11:29:43;;;;;;;0.95;0.95;;;;;;;4.39;92.48;95751.31;4984532;28;20039;-75
2024/01/02 11:32:16;;;;;;;0.68;0.68;;;;;;;4.45;92.84;95752.34;4976843;28;20055;-74
2024/01/02 11:34:53;;;;;;;0.98;0.98;;;;;;;4.46;92.62;95751.34;4987950;28;20105;-74
2024/01/02 11:37:32;;;;;;;0.65;0.65;;;;;;;4.51;92.78;95738.31;4988298;28;20050;-74
2024/01/02 11:40:06;;;;;;;0.93;0.93;;;;;;;4.57;92.70;95744.66;4947579;28;20057;-75
2024/01/02 11:42:42;;;;;;;0.95;0.95;;;;;;;4.63;92.98;95749.09;4972436;28;20109;-74
2024/01/02 11:45:13;;;;;;;1.27;1.27;;;;;;;4.72;92.83;95729.38;4980290;28;20053;-72
2024/01/02 11:47:43;;;;;;;0.15;0.15;;;;;;;4.77;92.98;95727.78;4982619;28;20445;-75
2024/01/02 11:50:15;;;;;;;1.15;1.15;;;;;;;4.86;93.04;95727.56;4974786;28;20054;-75
2024/01/02 11:52:53;;;;;;;1.05;1.05;;;;;;;4.98;92.93;95734.66;4974590;28;20149;-75
2024/01/02 11:55:33;;;;;;;0.80;0.80;;;;;;;5.06;93.00;95738.91;4974761;28;20056;-74